Duntocher, United Kingdom
Current Conditions -  °F | °C
As of 3:20 PM on Friday 19 Dec 2014 (Local Time) from EGPF Reporting Station
Broken Clouds Broken Clouds  
Wind Chill: 34°   Ceiling: 3900
Heat Index: 43°   Visibility: 6mi
Dew Point: 36°   Wind: 21mph
Humidity: 76%   Direction: 260°W
Pressure: 29.68"   Gusts: 32mph
Location:  55.92°N, 4.42°W
Report Text: EGPF 191520Z AUTO 26018G28KT 9999 SCT032/// BKN039/// //////CB 06/02 Q1005
Loading
Personal Weather Stations






























Interactive Weather Map New forecast layout! Learn more

10-Day Weather Forecast

Advertisements
Track Severe Weather on mobile